Time;durP1;ratioP1;P1;durP2;ratioP2;P2;SDS_P1;SDS_P2;PMS_P1;PMS_P2;Temp;Humidity;BMP_temperature;BMP_pressure;BME280_temperature;BME280_humidity;BME280_pressure;Samples;Min_cycle;Max_cycle;Signal;HPM_P1;HPM_P2
2022/03/06 06:44:17;;;;;;;;;;;;;;;2.62;95.06;98447.13;5907427;24;19956;31
2022/03/06 06:46:46;;;;;;;;;;;;;;;2.78;94.38;98453.59;4776662;30;20256;-68
2022/03/06 06:49:13;;;;;;;;;;;;;;;2.86;93.97;98455.44;4777284;30;19958;-68
2022/03/06 06:51:40;;;;;;;;;;;;;;;2.86;95.29;98447.16;4775846;30;19975;-68
2022/03/06 06:54:08;;;;;;;;;;;;;;;2.96;91.88;98454.97;4773806;30;19958;-68
2022/03/06 06:57:07;;;;;;;;;;;;;;;2.90;94.01;98450.84;4774811;29;20254;-68
2022/03/06 06:59:34;;;;;;;;;;;;;;;3.03;93.14;98466.25;4776206;30;19957;-69
2022/03/06 07:02:02;;;;;;;;;;;;;;;3.17;93.77;98465.94;4776177;30;19952;-68
2022/03/06 07:04:29;;;;;;;;;;;;;;;3.33;92.84;98464.91;4779507;30;19962;-68
2022/03/06 07:06:56;;;;;;;;;;;;;;;3.43;91.29;98463.63;4791883;30;19957;-68
2022/03/06 07:09:24;;;;;;;;;;;;;;;3.45;90.52;98463.28;4776622;30;19956;-69
2022/03/06 07:11:51;;;;;;;;;;;;;;;3.70;89.95;98470.38;4787493;30;19975;-68
2022/03/06 07:14:18;;;;;;;;;;;;;;;4.22;88.08;98468.38;4788581;29;19956;-68
2022/03/06 07:16:46;;;;;;;;;;;;;;;4.82;81.30;98470.03;4776675;30;19992;-69
2022/03/06 07:19:13;;;;;;;;;;;;;;;5.13;80.48;98477.56;4779014;30;19964;-68
2022/03/06 07:21:41;;;;;;;;;;;;;;;5.03;81.00;98478.91;4783990;29;19969;-68
2022/03/06 07:24:08;;;;;;;;;;;;;;;5.38;79.75;98473.41;4776053;30;20369;-68
2022/03/06 07:26:36;;;;;;;;;;;;;;;5.55;80.25;98466.72;4784817;30;20445;-68
2022/03/06 07:29:03;;;;;;;;;;;;;;;7.44;69.45;98474.47;4791149;29;20341;-69
2022/03/06 07:31:31;;;;;;;;;;;;;;;7.46;67.42;98476.88;4790032;29;19997;-69
2022/03/06 07:33:58;;;;;;;;;;;;;;;7.49;68.83;98484.47;4775133;30;20340;-68
2022/03/06 07:36:26;;;;;;;;;;;;;;;8.35;65.35;98480.59;4775525;30;20033;-68
2022/03/06 07:38:53;;;;;;;;;;;;;;;7.97;65.60;98478.84;4789815;30;19953;-68
2022/03/06 07:41:21;;;;;;;;;;;;;;;7.74;64.98;98480.09;4779018;30;19984;-69
2022/03/06 07:43:48;;;;;;;;;;;;;;;7.32;64.33;98479.41;4780301;30;19965;-68
2022/03/06 07:46:15;;;;;;;;;;;;;;;7.34;68.04;98482.63;4791778;29;19977;-68
2022/03/06 07:48:43;;;;;;;;;;;;;;;7.81;67.78;98485.78;4777339;30;19947;-68
2022/03/06 07:51:11;;;;;;;;;;;;;;;8.65;65.09;98490.91;4803091;29;19960;-69
2022/03/06 07:53:38;;;;;;;;;;;;;;;9.08;61.28;98487.38;4792975;29;19974;-68
2022/03/06 07:56:06;;;;;;;;;;;;;;;9.37;61.91;98494.84;4793080;30;19958;-68
2022/03/06 07:58:33;;;;;;;;;;;;;;;9.68;60.20;98491.50;4792355;30;19956;-69
2022/03/06 08:01:01;;;;;;;;;;;;;;;9.56;60.36;98483.44;4791568;30;19955;-69
2022/03/06 08:03:28;;;;;;;;;;;;;;;9.22;61.16;98493.91;4793048;30;20336;-69
2022/03/06 08:05:55;;;;;;;;;;;;;;;8.18;62.54;98495.06;4792938;30;19970;-68
2022/03/06 08:08:23;;;;;;;;;;;;;;;7.97;64.21;98493.97;4792494;29;19957;-69
2022/03/06 08:10:50;;;;;;;;;;;;;;;8.08;65.25;98489.34;4792466;30;19960;-69
2022/03/06 08:13:17;;;;;;;;;;;;;;;7.86;64.41;98491.81;4792390;30;19980;-69
2022/03/06 08:15:45;;;;;;;;;;;;;;;8.25;61.59;98486.00;4792513;30;20355;-68
2022/03/06 08:18:12;;;;;;;;;;;;;;;8.17;60.20;98492.63;4791676;30;19949;-68
2022/03/06 08:20:39;;;;;;;;;;;;;;;8.15;61.16;98492.22;4792352;30;20375;-68
2022/03/06 08:23:07;;;;;;;;;;;;;;;8.23;58.70;98489.16;4792657;30;19952;-69
2022/03/06 08:25:34;;;;;;;;;;;;;;;8.59;59.24;98491.25;4792317;30;19948;-68
2022/03/06 08:28:01;;;;;;;;;;;;;;;8.11;63.45;98494.16;4792498;30;19953;-68
2022/03/06 08:30:29;;;;;;;;;;;;;;;8.07;61.87;98496.88;4792150;30;20460;-69
2022/03/06 08:32:56;;;;;;;;;;;;;;;7.65;63.17;98488.72;4792199;30;19968;-69
2022/03/06 08:35:23;;;;;;;;;;;;;;;7.24;67.86;98495.97;4790694;29;19948;-68
2022/03/06 08:37:51;;;;;;;;;;;;;;;7.00;65.81;98493.56;4792444;30;19974;-68
2022/03/06 08:40:18;;;;;;;;;;;;;;;7.06;67.65;98489.31;4787032;30;19961;-68
2022/03/06 08:42:46;;;;;;;;;;;;;;;7.08;68.97;98491.72;4791834;30;20061;-69
2022/03/06 08:45:13;;;;;;;;;;;;;;;6.96;73.87;98492.72;4791534;30;19973;-69
2022/03/06 08:47:41;;;;;;;;;;;;;;;6.93;70.18;98481.50;4795215;29;20364;-69
2022/03/06 08:50:08;;;;;;;;;;;;;;;6.91;70.18;98486.66;4793495;29;19958;-69
2022/03/06 08:52:35;;;;;;;;;;;;;;;7.32;73.06;98488.56;4791252;30;19970;-68
2022/03/06 08:55:03;;;;;;;;;;;;;;;6.96;71.04;98487.16;4791933;30;19956;-68
2022/03/06 08:57:31;;;;;;;;;;;;;;;6.88;71.22;98479.03;4791900;30;20245;-68
2022/03/06 08:59:58;;;;;;;;;;;;;;;6.29;75.87;98485.00;4792710;29;19952;-69
2022/03/06 09:02:25;;;;;;;;;;;;;;;6.85;75.17;98477.00;4792314;30;20264;-68
2022/03/06 09:04:53;;;;;;;;;;;;;;;6.85;72.06;98480.56;4791896;30;19960;-68
2022/03/06 09:07:20;;;;;;;;;;;;;;;6.67;74.35;98482.22;4791160;30;20344;-68
2022/03/06 09:09:47;;;;;;;;;;;;;;;6.66;72.42;98488.13;4791990;30;20256;-69
2022/03/06 09:12:15;;;;;;;;;;;;;;;6.77;70.63;98484.41;4792188;30;19980;-69
2022/03/06 09:14:42;;;;;;;;;;;;;;;6.82;71.32;98488.88;4798458;29;19960;-69
2022/03/06 09:17:09;;;;;;;;;;;;;;;6.03;75.31;98498.75;4792030;30;19956;-69
2022/03/06 09:19:37;;;;;;;;;;;;;;;6.08;78.16;98498.44;4791388;30;19954;-69
2022/03/06 09:22:04;;;;;;;;;;;;;;;6.34;76.02;98495.84;4792072;30;20253;-69
2022/03/06 09:24:32;;;;;;;;;;;;;;;6.26;77.65;98488.53;4791770;30;19955;-69
2022/03/06 09:27:00;;;;;;;;;;;;;;;6.68;80.82;98497.72;4794960;29;19954;-68
2022/03/06 09:29:27;;;;;;;;;;;;;;;6.68;74.68;98500.50;4795117;29;19955;-68
2022/03/06 09:31:55;;;;;;;;;;;;;;;7.04;78.25;98502.00;4793975;29;20030;-68
2022/03/06 09:34:22;;;;;;;;;;;;;;;6.97;73.92;98501.88;4809733;29;19978;-69
2022/03/06 09:36:49;;;;;;;;;;;;;;;7.06;71.54;98494.06;4792808;29;19955;-68
2022/03/06 09:39:17;;;;;;;;;;;;;;;7.26;74.88;98501.19;4791237;29;19957;-69
2022/03/06 09:41:47;;;;;;;;;;;;;;;7.02;72.50;98499.56;4798067;29;19965;-68
2022/03/06 09:44:15;;;;;;;;;;;;;;;7.23;72.21;98497.19;4798853;29;20266;-69
2022/03/06 09:46:42;;;;;;;;;;;;;;;7.14;70.97;98493.81;4801160;29;19952;-68
2022/03/06 09:49:10;;;;;;;;;;;;;;;6.81;74.61;98498.38;4792110;29;20249;-68
2022/03/06 09:51:39;;;;;;;;;;;;;;;6.60;73.65;98499.56;4797097;29;19953;-68
2022/03/06 09:54:08;;;;;;;;;;;;;;;6.55;74.72;98499.06;4794734;29;20051;-69
2022/03/06 09:56:35;;;;;;;;;;;;;;;6.83;75.77;98502.38;4791577;30;19950;-69
2022/03/06 09:59:03;;;;;;;;;;;;;;;7.12;76.93;98498.94;4795556;29;19955;-69
2022/03/06 10:01:30;;;;;;;;;;;;;;;6.92;76.33;98497.38;4794634;29;19953;-69
2022/03/06 10:04:18;;;;;;;;;;;;;;;7.03;73.32;98494.81;4792588;29;19952;-69
2022/03/06 10:07:05;;;;;;;;;;;;;;;7.52;70.05;98501.22;4793114;29;19965;-68
2022/03/06 10:09:33;;;;;;;;;;;;;;;7.70;70.36;98498.75;4790950;30;19961;-68
2022/03/06 10:12:01;;;;;;;;;;;;;;;6.79;72.44;98500.72;4793543;29;19953;-69
2022/03/06 10:14:34;;;;;;;;;;;;;;;6.93;71.66;98489.84;4795247;29;19975;-69
2022/03/06 10:17:09;;;;;;;;;;;;;;;6.96;73.13;98494.69;4779180;29;20256;-69
2022/03/06 10:19:48;;;;;;;;;;;;;;;6.85;72.76;98494.47;4801259;29;19960;-68
2022/03/06 10:22:18;;;;;;;;;;;;;;;6.83;74.32;98502.38;4789556;29;20366;-69
2022/03/06 10:24:49;;;;;;;;;;;;;;;6.68;71.31;98499.69;4791337;30;19956;-68
2022/03/06 10:27:37;;;;;;;;;;;;;;;6.92;79.38;98500.16;4791443;30;19969;-69
2022/03/06 10:30:21;;;;;;;;;;;;;;;6.73;72.97;98493.84;4791161;30;20374;-69
2022/03/06 10:32:49;;;;;;;;;;;;;;;7.05;76.62;98493.25;4794477;29;19956;-69
2022/03/06 10:35:19;;;;;;;;;;;;;;;7.31;64.46;98492.53;4795042;29;19955;-69
2022/03/06 10:37:46;;;;;;;;;;;;;;;7.13;68.94;98503.34;4795562;29;20350;-68
2022/03/06 10:40:14;;;;;;;;;;;;;;;6.81;72.88;98495.59;4794247;30;19951;-68
2022/03/06 10:42:42;;;;;;;;;;;;;;;7.22;70.19;98494.75;4796718;29;19961;-69
2022/03/06 10:45:29;;;;;;;;;;;;;;;7.28;71.42;98487.72;4808127;29;19977;-68
2022/03/06 10:47:57;;;;;;;;;;;;;;;7.03;70.12;98483.69;4794146;30;19984;-68
2022/03/06 10:50:25;;;;;;;;;;;;;;;6.71;70.92;98485.88;4794973;29;19952;-68
2022/03/06 10:52:55;;;;;;;;;;;;;;;6.69;70.81;98479.88;4797471;29;19953;-68
2022/03/06 10:55:33;;;;;;;;;;;;;;;6.36;70.01;98483.19;4794813;29;19957;-68
2022/03/06 10:58:01;;;;;;;;;;;;;;;6.44;68.22;98484.94;4797663;29;19956;-68
2022/03/06 11:00:29;;;;;;;;;;;;;;;6.55;65.16;98490.72;4798855;29;19958;-69
2022/03/06 11:02:57;;;;;;;;;;;;;;;6.72;73.21;98481.94;4794269;29;19961;-69
2022/03/06 11:05:26;;;;;;;;;;;;;;;6.75;67.27;98478.41;4793709;30;19953;-69
2022/03/06 11:07:55;;;;;;;;;;;;;;;6.83;62.77;98480.16;4780682;30;19959;-69
2022/03/06 11:10:22;;;;;;;;;;;;;;;6.77;62.10;98472.50;4802854;29;19956;-68
2022/03/06 11:12:50;;;;;;;;;;;;;;;6.64;66.66;98469.06;4797735;29;19953;-68
2022/03/06 11:15:17;;;;;;;;;;;;;;;6.53;65.45;98457.75;4795886;29;19968;-68
2022/03/06 11:17:44;;;;;;;;;;;;;;;6.88;66.34;98463.16;4794111;30;20257;-68
2022/03/06 11:20:12;;;;;;;;;;;;;;;7.18;61.68;98472.44;4794197;29;20276;-69
2022/03/06 11:22:45;;;;;;;;;;;;;;;6.96;63.15;98464.09;4793477;29;19953;-68
2022/03/06 11:25:14;;;;;;;;;;;;;;;7.12;58.93;98448.91;4793770;30;19965;-69
2022/03/06 11:27:42;;;;;;;;;;;;;;;6.46;61.91;98454.81;4793389;30;19967;-68
2022/03/06 11:30:35;;;;;;;;;;;;;;;6.41;63.33;98443.22;4800616;29;19963;-68
2022/03/06 11:33:04;;;;;;;;;;;;;;;6.16;65.66;98441.91;4780914;29;19956;-68
2022/03/06 11:35:41;;;;;;;;;;;;;;;6.18;68.26;98443.16;4804041;29;19984;-68
2022/03/06 11:38:12;;;;;;;;;;;;;;;6.11;69.60;98437.47;4793352;30;19963;-69
2022/03/06 11:40:53;;;;;;;;;;;;;;;5.99;67.97;98431.25;4793044;30;19961;-69
2022/03/06 11:43:23;;;;;;;;;;;;;;;6.06;68.27;98428.63;4792993;29;19959;-69
2022/03/06 11:46:02;;;;;;;;;;;;;;;6.01;68.99;98420.59;4793284;30;20009;-68
2022/03/06 11:48:32;;;;;;;;;;;;;;;6.17;68.57;98424.88;4793145;30;19959;-68
2022/03/06 11:51:14;;;;;;;;;;;;;;;6.49;68.00;98414.41;4780230;30;19970;-69
2022/03/06 11:54:01;;;;;;;;;;;;;;;6.41;63.12;98405.13;4792722;30;19965;-69
2022/03/06 11:56:32;;;;;;;;;;;;;;;6.96;61.72;98406.53;4792881;30;19958;-69
2022/03/06 11:58:59;;;;;;;;;;;;;;;6.97;65.95;98397.00;4792795;30;20251;-69
2022/03/06 12:01:38;;;;;;;;;;;;;;;7.33;62.75;98392.03;4793179;30;20256;-68
2022/03/06 12:04:08;;;;;;;;;;;;;;;7.53;59.30;98394.31;4792723;30;19957;-69
2022/03/06 12:06:42;;;;;;;;;;;;;;;7.51;61.55;98398.63;4805644;29;19960;-68
2022/03/06 12:09:11;;;;;;;;;;;;;;;7.84;64.57;98404.28;4792471;30;19961;-69
2022/03/06 12:11:39;;;;;;;;;;;;;;;7.78;59.50;98397.44;4791122;29;20072;-68
2022/03/06 12:14:19;;;;;;;;;;;;;;;7.45;59.04;98389.84;4792585;30;19968;-68
2022/03/06 12:17:02;;;;;;;;;;;;;;;7.35;60.19;98387.69;4792269;30;19973;-68
2022/03/06 12:19:35;;;;;;;;;;;;;;;7.43;58.45;98388.59;4799892;29;20263;-68
2022/03/06 12:22:34;;;;;;;;;;;;;;;7.43;57.59;98385.81;4775230;30;19955;-68
2022/03/06 12:25:08;;;;;;;;;;;;;;;7.58;56.03;98385.63;4790485;29;19961;-68
2022/03/06 12:27:40;;;;;;;;;;;;;;;7.49;56.58;98375.97;4790890;30;19951;-68
2022/03/06 12:30:09;;;;;;;;;;;;;;;7.25;59.47;98377.19;4792511;30;19958;-68
2022/03/06 12:32:38;;;;;;;;;;;;;;;7.31;61.83;98367.38;4791179;29;19956;-67
2022/03/06 12:35:14;;;;;;;;;;;;;;;7.51;59.58;98370.81;4792748;30;19964;-67
2022/03/06 12:37:44;;;;;;;;;;;;;;;7.54;58.69;98364.50;4791950;30;19965;-67
2022/03/06 12:40:13;;;;;;;;;;;;;;;7.52;58.05;98359.31;4776889;30;20337;-67
2022/03/06 12:42:42;;;;;;;;;;;;;;;7.64;59.22;98370.22;4793170;29;19958;-67
2022/03/06 12:45:10;;;;;;;;;;;;;;;7.44;57.44;98360.41;4792022;30;20006;-67
2022/03/06 12:47:39;;;;;;;;;;;;;;;7.44;55.64;98354.84;4792640;30;19948;-67
2022/03/06 12:50:09;;;;;;;;;;;;;;;7.18;57.81;98349.28;4792200;30;20256;-67
2022/03/06 12:52:37;;;;;;;;;;;;;;;7.11;58.76;98347.22;4792424;30;19956;-67
2022/03/06 12:55:06;;;;;;;;;;;;;;;6.71;60.36;98346.94;4791142;30;19970;-67
2022/03/06 12:57:38;;;;;;;;;;;;;;;6.69;58.70;98346.50;4806126;29;19953;-68
2022/03/06 13:00:16;;;;;;;;;;;;;;;6.87;58.20;98341.25;4791995;30;19954;-67
2022/03/06 13:02:48;;;;;;;;;;;;;;;6.72;57.66;98343.00;4791146;30;20344;-67
2022/03/06 13:05:16;;;;;;;;;;;;;;;6.53;59.29;98337.47;4792472;29;19953;-67
2022/03/06 13:07:43;;;;;;;;;;;;;;;6.57;64.16;98333.63;4791360;30;19961;-67
2022/03/06 13:10:12;;;;;;;;;;;;;;;6.54;60.95;98334.34;4792340;30;19954;-67
2022/03/06 13:12:40;;;;;;;;;;;;;;;6.74;59.53;98326.75;4791451;30;19950;-68
2022/03/06 13:15:14;;;;;;;;;;;;;;;6.71;58.12;98321.13;4791691;30;19964;-67
2022/03/06 13:18:04;;;;;;;;;;;;;;;6.67;57.23;98328.59;4791770;30;19961;-67
2022/03/06 13:20:36;;;;;;;;;;;;;;;6.68;61.07;98319.06;5283826;24;19976;-68
2022/03/06 13:23:04;;;;;;;;;;;;;;;6.64;59.99;98316.25;4843671;29;19952;-69
2022/03/06 13:25:31;;;;;;;;;;;;;;;6.56;59.20;98320.06;4844221;29;20380;-68
2022/03/06 13:27:59;;;;;;;;;;;;;;;6.86;56.97;98314.63;4845513;29;19970;-68
2022/03/06 13:30:30;;;;;;;;;;;;;;;6.64;57.48;98307.91;4844154;29;19962;-69
2022/03/06 13:32:59;;;;;;;;;;;;;;;6.87;59.91;98305.13;4845171;29;20375;-68
2022/03/06 13:35:31;;;;;;;;;;;;;;;6.88;56.94;98304.72;4846078;29;19971;-68
2022/03/06 13:37:59;;;;;;;;;;;;;;;6.88;55.49;98310.28;4846116;29;20282;-68
2022/03/06 13:40:28;;;;;;;;;;;;;;;6.93;55.93;98306.38;4844462;29;19952;-68
2022/03/06 13:42:55;;;;;;;;;;;;;;;6.66;56.90;98305.56;4840756;29;19953;-68
2022/03/06 13:45:23;;;;;;;;;;;;;;;6.74;55.33;98307.28;4848029;29;19950;-68
2022/03/06 13:47:53;;;;;;;;;;;;;;;6.59;56.66;98299.91;4845857;29;19962;-68
2022/03/06 13:50:35;;;;;;;;;;;;;;;6.54;57.71;98308.53;4845462;29;19952;-68
2022/03/06 13:53:04;;;;;;;;;;;;;;;6.47;58.85;98305.66;4831510;29;19954;-68
2022/03/06 13:55:33;;;;;;;;;;;;;;;6.61;58.48;98312.25;4845503;29;19977;-68
2022/03/06 13:58:16;;;;;;;;;;;;;;;6.74;57.98;98301.75;4837236;29;19956;-68
2022/03/06 14:00:45;;;;;;;;;;;;;;;6.94;60.74;98308.00;4843928;29;19963;-71
2022/03/06 14:03:15;;;;;;;;;;;;;;;6.93;58.58;98298.84;4845691;29;19951;-69
2022/03/06 14:05:45;;;;;;;;;;;;;;;7.15;53.83;98311.91;4844366;29;19956;-69
2022/03/06 14:08:20;;;;;;;;;;;;;;;7.15;53.98;98297.19;4849961;29;19960;-69
2022/03/06 14:10:49;;;;;;;;;;;;;;;6.99;54.49;98296.56;4847652;29;20337;-69
2022/03/06 14:13:25;;;;;;;;;;;;;;;7.20;53.78;98299.66;4849274;29;19959;-69
2022/03/06 14:15:53;;;;;;;;;;;;;;;7.10;55.88;98294.72;4848028;29;19972;-69
2022/03/06 14:18:34;;;;;;;;;;;;;;;7.19;54.66;98282.16;4849237;29;19947;-69
2022/03/06 14:21:14;;;;;;;;;;;;;;;7.20;54.14;98294.91;4833864;29;19973;-69
2022/03/06 14:23:42;;;;;;;;;;;;;;;7.23;54.33;98298.91;4835788;29;19956;-69
2022/03/06 14:26:10;;;;;;;;;;;;;;;7.00;56.26;98293.41;4848862;29;19961;-69
2022/03/06 14:28:47;;;;;;;;;;;;;;;7.03;54.87;98297.41;4848522;29;20340;-69
2022/03/06 14:31:21;;;;;;;;;;;;;;;6.84;55.81;98291.97;4848977;29;19954;-68
2022/03/06 14:33:48;;;;;;;;;;;;;;;6.74;58.59;98298.16;4846403;29;19989;-69
2022/03/06 14:36:16;;;;;;;;;;;;;;;6.67;56.40;98301.63;4843579;29;19968;-69
2022/03/06 14:38:45;;;;;;;;;;;;;;;6.55;56.73;98305.38;4838821;29;19956;-68
2022/03/06 14:41:12;;;;;;;;;;;;;;;6.49;58.00;98303.28;4849148;29;19964;-71
2022/03/06 14:43:40;;;;;;;;;;;;;;;6.43;59.83;98296.47;4845618;29;19948;-68
2022/03/06 14:46:08;;;;;;;;;;;;;;;6.54;58.67;98294.66;4848746;29;20033;-69
2022/03/06 14:48:36;;;;;;;;;;;;;;;6.34;58.80;98299.47;4847661;29;20349;-70
2022/03/06 14:51:05;;;;;;;;;;;;;;;6.26;60.26;98297.72;4848061;29;19954;-70
2022/03/06 14:53:32;;;;;;;;;;;;;;;6.39;59.42;98301.13;4848389;29;19958;-70
2022/03/06 14:56:00;;;;;;;;;;;;;;;6.42;57.16;98303.19;4842021;29;19971;-70
2022/03/06 14:58:34;;;;;;;;;;;;;;;6.37;58.00;98297.94;4844724;29;19952;-70
2022/03/06 15:01:03;;;;;;;;;;;;;;;6.31;59.06;98297.41;4848468;29;19963;-70
2022/03/06 15:03:31;;;;;;;;;;;;;;;6.43;58.37;98290.91;4848427;29;19958;-70
2022/03/06 15:05:59;;;;;;;;;;;;;;;6.50;58.53;98285.47;4838253;29;19948;-70
2022/03/06 15:08:42;;;;;;;;;;;;;;;6.59;58.69;98286.81;4844584;29;19962;-69
2022/03/06 15:11:10;;;;;;;;;;;;;;;6.46;57.08;98288.16;4835404;29;19953;-70
2022/03/06 15:13:38;;;;;;;;;;;;;;;6.55;57.15;98276.81;4843420;29;19956;-70
2022/03/06 15:16:05;;;;;;;;;;;;;;;6.60;56.98;98276.50;4846416;29;20011;-70
2022/03/06 15:18:32;;;;;;;;;;;;;;;6.47;57.83;98284.22;4846611;29;20032;-70
2022/03/06 15:21:00;;;;;;;;;;;;;;;6.51;56.42;98273.97;4837599;29;19969;-70
2022/03/06 15:23:27;;;;;;;;;;;;;;;6.43;55.42;98274.25;4843031;29;20375;-70
2022/03/06 15:25:54;;;;;;;;;;;;;;;6.44;55.96;98279.41;4831364;29;20257;-70
2022/03/06 15:28:22;;;;;;;;;;;;;;;6.59;54.75;98272.91;4845758;29;19968;-70
2022/03/06 15:30:49;;;;;;;;;;;;;;;6.48;55.18;98277.50;4847365;29;19969;-70
2022/03/06 15:33:17;;;;;;;;;;;;;;;6.39;56.10;98273.34;4854566;29;20332;-69
2022/03/06 15:35:44;;;;;;;;;;;;;;;6.39;55.52;98276.94;4847648;29;19975;-70
2022/03/06 15:38:12;;;;;;;;;;;;;;;6.39;55.00;98271.38;4843358;29;19951;-70
2022/03/06 15:40:39;;;;;;;;;;;;;;;6.27;55.97;98273.53;4837688;29;19954;-70
2022/03/06 15:43:06;;;;;;;;;;;;;;;6.20;57.87;98279.78;4831015;29;20342;-70
2022/03/06 15:45:33;;;;;;;;;;;;;;;6.21;56.55;98272.25;4829958;29;20265;-70
2022/03/06 15:48:01;;;;;;;;;;;;;;;6.15;57.42;98270.94;4829423;29;20259;-70
2022/03/06 15:50:28;;;;;;;;;;;;;;;6.22;58.38;98276.63;4833501;29;19963;-70
2022/03/06 15:52:55;;;;;;;;;;;;;;;6.01;59.77;98271.50;4844277;29;19962;-70
2022/03/06 15:55:23;;;;;;;;;;;;;;;6.03;58.48;98266.38;4847150;29;20363;-70
2022/03/06 15:57:51;;;;;;;;;;;;;;;5.93;58.38;98269.75;4831520;29;19976;-70
2022/03/06 16:00:19;;;;;;;;;;;;;;;5.85;59.19;98273.56;4847520;29;20337;-70
2022/03/06 16:02:46;;;;;;;;;;;;;;;6.04;58.30;98267.19;4847327;29;20248;-71
2022/03/06 16:05:15;;;;;;;;;;;;;;;6.03;57.39;98271.94;4838167;29;19958;-70
2022/03/06 16:07:42;;;;;;;;;;;;;;;6.02;57.29;98269.50;4846723;29;19951;-70
2022/03/06 16:10:10;;;;;;;;;;;;;;;5.92;58.35;98268.97;4834218;29;19952;-70
2022/03/06 16:12:37;;;;;;;;;;;;;;;5.91;57.92;98266.56;4839694;29;19963;-70
2022/03/06 16:15:11;;;;;;;;;;;;;;;5.93;57.07;98273.34;4833505;29;19959;-70
2022/03/06 16:17:39;;;;;;;;;;;;;;;5.82;58.33;98269.53;4839105;29;19955;-70
2022/03/06 16:20:09;;;;;;;;;;;;;;;5.82;56.90;98277.06;4852190;29;20389;-70
2022/03/06 16:22:37;;;;;;;;;;;;;;;5.76;56.01;98264.66;4842550;29;19970;-70
2022/03/06 16:25:05;;;;;;;;;;;;;;;5.70;57.65;98269.69;4842241;29;20211;-70
2022/03/06 16:27:34;;;;;;;;;;;;;;;5.63;57.21;98263.19;4834677;29;20046;-70
2022/03/06 16:30:03;;;;;;;;;;;;;;;5.64;57.93;98270.34;4841881;29;19960;-70
2022/03/06 16:32:31;;;;;;;;;;;;;;;5.60;57.47;98273.03;4846578;29;19950;-70
2022/03/06 16:34:58;;;;;;;;;;;;;;;5.59;57.11;98270.66;4839536;29;19952;-70
2022/03/06 16:37:29;;;;;;;;;;;;;;;5.58;56.75;98277.34;4839482;29;19983;-70
2022/03/06 16:39:58;;;;;;;;;;;;;;;5.57;57.81;98273.81;4840376;29;19951;-70
2022/03/06 16:42:25;;;;;;;;;;;;;;;5.51;57.50;98266.94;4845910;29;19961;-70
2022/03/06 16:44:54;;;;;;;;;;;;;;;5.51;58.88;98277.22;4833752;29;20374;-70
2022/03/06 16:47:23;;;;;;;;;;;;;;;5.47;57.18;98276.34;4855780;29;19957;-70
2022/03/06 16:49:51;;;;;;;;;;;;;;;5.44;58.60;98275.09;4842836;29;19960;-70
2022/03/06 16:52:19;;;;;;;;;;;;;;;5.43;57.32;98278.25;4857179;29;19953;-70
2022/03/06 16:54:46;;;;;;;;;;;;;;;5.39;57.07;98275.41;4847855;29;19954;-70
2022/03/06 16:57:15;;;;;;;;;;;;;;;5.31;56.66;98282.75;4844232;29;19969;-69
2022/03/06 16:59:42;;;;;;;;;;;;;;;5.24;56.43;98279.03;4839624;29;19983;-70
2022/03/06 17:02:10;;;;;;;;;;;;;;;5.17;57.37;98279.69;4829970;29;19963;-71
2022/03/06 17:04:37;;;;;;;;;;;;;;;5.09;58.06;98283.47;4844219;29;20351;-69
2022/03/06 17:07:08;;;;;;;;;;;;;;;4.99;59.29;98277.69;4847316;29;19958;-69
2022/03/06 17:09:35;;;;;;;;;;;;;;;4.95;58.46;98282.34;4841796;29;19956;-69
2022/03/06 17:12:04;;;;;;;;;;;;;;;4.90;57.63;98280.66;4841552;29;19957;-69
2022/03/06 17:14:32;;;;;;;;;;;;;;;4.85;58.89;98286.47;4843603;29;19952;-69
2022/03/06 17:17:00;;;;;;;;;;;;;;;4.84;58.20;98284.06;4839149;29;19970;-69
2022/03/06 17:19:27;;;;;;;;;;;;;;;4.81;57.59;98282.81;4840549;29;19953;-69
2022/03/06 17:21:55;;;;;;;;;;;;;;;4.78;58.42;98291.84;4844954;29;19953;-69
2022/03/06 17:24:22;;;;;;;;;;;;;;;4.71;58.48;98288.09;4843063;29;20370;-69
2022/03/06 17:26:50;;;;;;;;;;;;;;;4.66;58.25;98289.19;4844146;29;19987;-69
2022/03/06 17:29:17;;;;;;;;;;;;;;;4.70;58.20;98287.28;4844634;29;19955;-69
2022/03/06 17:31:45;;;;;;;;;;;;;;;4.64;58.32;98289.56;4845147;29;19956;-69
2022/03/06 17:34:12;;;;;;;;;;;;;;;4.60;58.92;98291.41;4844448;29;19962;-69
2022/03/06 17:36:39;;;;;;;;;;;;;;;4.56;59.32;98303.56;4843902;29;20284;-69
2022/03/06 17:39:07;;;;;;;;;;;;;;;4.54;59.48;98300.38;4842702;29;19952;-69
2022/03/06 17:41:35;;;;;;;;;;;;;;;4.55;58.97;98302.78;4845766;29;19972;-69
2022/03/06 17:44:03;;;;;;;;;;;;;;;4.49;59.18;98301.44;4851323;29;20251;-69
2022/03/06 17:46:30;;;;;;;;;;;;;;;4.51;59.64;98298.31;4847546;29;19954;-69
2022/03/06 17:48:59;;;;;;;;;;;;;;;4.52;58.63;98305.47;4848954;29;19959;-69
2022/03/06 17:51:27;;;;;;;;;;;;;;;4.50;58.58;98303.03;4847175;29;19959;-69
2022/03/06 17:53:55;;;;;;;;;;;;;;;4.51;58.38;98299.13;4846466;29;20278;-69
2022/03/06 17:56:22;;;;;;;;;;;;;;;4.46;59.36;98307.69;4852724;29;19982;-69
2022/03/06 17:58:50;;;;;;;;;;;;;;;4.41;59.61;98310.72;4853776;29;19963;-69
2022/03/06 18:01:18;;;;;;;;;;;;;;;4.49;58.46;98312.53;4854070;29;19957;-70
2022/03/06 18:03:45;;;;;;;;;;;;;;;4.40;59.47;98311.09;4842511;29;19954;-69
2022/03/06 18:06:14;;;;;;;;;;;;;;;4.44;nan;98310.03;4847223;29;19964;-69
2022/03/06 18:08:43;;;;;;;;;;;;;;;4.42;59.18;98309.56;4846271;29;19953;-69
2022/03/06 18:11:11;;;;;;;;;;;;;;;4.39;59.23;98312.25;4847265;29;19956;-69
2022/03/06 18:13:39;;;;;;;;;;;;;;;4.34;60.17;98327.16;4847195;29;19980;-70
2022/03/06 18:16:07;;;;;;;;;;;;;;;4.36;59.06;98318.50;4847853;29;19955;-69
2022/03/06 18:18:38;;;;;;;;;;;;;;;4.32;59.05;98317.59;4849239;29;19948;-70
2022/03/06 18:21:08;;;;;;;;;;;;;;;4.30;59.67;98323.50;4847013;29;20282;-70
2022/03/06 18:23:35;;;;;;;;;;;;;;;4.28;60.46;98323.03;4840937;29;19964;-70
2022/03/06 18:26:03;;;;;;;;;;;;;;;4.30;59.40;98319.94;4839676;29;19958;-70
2022/03/06 18:28:31;;;;;;;;;;;;;;;4.31;58.27;98325.09;4858359;29;19956;-70
2022/03/06 18:31:24;;;;;;;;;;;;;;;4.32;58.13;98328.69;4848334;29;19954;-70
2022/03/06 18:33:52;;;;;;;;;;;;;;;4.36;58.10;98324.84;4818729;29;19954;-70
2022/03/06 18:36:19;;;;;;;;;;;;;;;4.23;59.33;98320.53;4843398;29;19949;-70
2022/03/06 18:38:48;;;;;;;;;;;;;;;4.27;59.21;98326.16;4828408;29;20327;-70
2022/03/06 18:41:16;;;;;;;;;;;;;;;4.26;59.28;98328.13;4839753;29;20401;-70
2022/03/06 18:43:45;;;;;;;;;;;;;;;4.29;58.87;98332.97;4850228;29;19953;-70
2022/03/06 18:46:14;;;;;;;;;;;;;;;4.30;58.67;98331.00;4848127;29;20664;-70
2022/03/06 18:48:41;;;;;;;;;;;;;;;4.29;59.01;98329.38;4854655;29;19985;-70
2022/03/06 18:51:09;;;;;;;;;;;;;;;4.26;58.96;98335.63;4838110;29;20285;-70
2022/03/06 18:53:37;;;;;;;;;;;;;;;4.26;59.05;98336.44;4834563;29;20335;-70
2022/03/06 19:10:18;;;;;;;;;;;;;;;4.23;58.66;98337.13;4837601;29;19976;-73
2022/03/06 19:12:45;;;;;;;;;;;;;;;4.21;60.28;98345.00;4832483;29;19949;-74
2022/03/06 19:15:13;;;;;;;;;;;;;;;4.15;60.93;98343.66;4846026;29;19957;-72
2022/03/06 19:17:40;;;;;;;;;;;;;;;4.21;58.74;98345.00;4834825;29;19954;-71
2022/03/06 19:20:08;;;;;;;;;;;;;;;4.24;59.42;98344.28;4831319;29;19980;-72
2022/03/06 19:22:35;;;;;;;;;;;;;;;4.17;59.22;98337.75;4834714;29;20242;-72
2022/03/06 19:25:03;;;;;;;;;;;;;;;4.18;59.33;98344.91;4836502;29;20337;-73
2022/03/06 19:27:30;;;;;;;;;;;;;;;4.13;59.39;98345.97;4840731;29;20004;-72
2022/03/06 19:29:58;;;;;;;;;;;;;;;4.15;59.64;98343.66;4846930;29;19954;-73
2022/03/06 19:32:26;;;;;;;;;;;;;;;4.13;58.96;98345.97;4839430;29;19961;-73
2022/03/06 19:34:53;;;;;;;;;;;;;;;4.13;58.80;98348.75;4838852;29;19960;-73
2022/03/06 19:37:20;;;;;;;;;;;;;;;4.14;59.38;98355.88;4847940;29;19954;-72
2022/03/06 19:39:49;;;;;;;;;;;;;;;4.08;59.88;98350.97;4837813;29;19961;-72
2022/03/06 19:42:16;;;;;;;;;;;;;;;4.08;59.88;98354.53;4848109;29;19956;-72
2022/03/06 19:44:44;;;;;;;;;;;;;;;4.15;59.55;98359.44;4834853;29;20392;-72
2022/03/06 19:47:11;;;;;;;;;;;;;;;4.17;60.16;98357.13;4840313;29;20364;-70
2022/03/06 19:49:38;;;;;;;;;;;;;;;4.12;60.07;98371.22;4847619;29;19954;-71
2022/03/06 19:52:07;;;;;;;;;;;;;;;4.05;59.88;98363.53;4844687;29;19965;-72
2022/03/06 19:54:35;;;;;;;;;;;;;;;4.09;59.51;98369.16;4847802;29;19961;-71
2022/03/06 19:57:03;;;;;;;;;;;;;;;4.09;60.00;98374.69;4844629;29;20652;-71
2022/03/06 19:59:31;;;;;;;;;;;;;;;4.06;59.51;98373.44;4844243;29;19961;-72
2022/03/06 20:01:58;;;;;;;;;;;;;;;4.08;59.61;98375.88;4847800;29;19958;-73
2022/03/06 20:04:33;;;;;;;;;;;;;;;4.11;59.25;98384.25;4847207;29;19950;-70
2022/03/06 20:07:02;;;;;;;;;;;;;;;4.14;60.09;98378.00;4844626;29;19970;-70